Adams, North Dakota
Current Conditions -  °F | °C
As of 12:15 PM on Thursday 18 Dec 2014 (Local Time) from KD55 Reporting Station
Broken Clouds Broken Clouds  
Wind Chill: -13°   Ceiling: 6000
Heat Index: -6°   Visibility: 10mi
Dew Point: -9°   Wind: 15mph
Humidity: 80%   Direction: 180°S
Pressure: 30.1"   Gusts: 20mph
Location:  48.42°N, 98.08°W
Report Text: KD55 181815Z AUTO 18013G17KT 10SM BKN060 M06/M09 A3010 RMK AO2
Loading
Personal Weather Stations






























Interactive Weather Map New forecast layout! Learn more

10-Day Weather Forecast

Advertisements
Track Severe Weather on mobile